createdAt,value
2023-03-27T00:00:46.145Z,7.39
2023-03-27T00:01:46.139Z,7.38
2023-03-27T00:02:46.228Z,7.37
2023-03-27T00:03:46.299Z,7.36
2023-03-27T00:04:46.154Z,7.35
2023-03-27T00:05:46.142Z,7.35
2023-03-27T00:06:46.095Z,7.34
2023-03-27T00:07:46.084Z,7.33
2023-03-27T00:08:46.091Z,7.32
2023-03-27T00:09:46.026Z,7.31
2023-03-27T00:10:46.024Z,7.30
2023-03-27T00:11:46.082Z,7.29
2023-03-27T00:12:46.033Z,7.28
2023-03-27T00:13:49.987Z,7.28
2023-03-27T00:14:47.016Z,7.27
2023-03-27T00:15:46.012Z,7.27
2023-03-27T00:16:46.045Z,7.26
2023-03-27T00:17:45.948Z,7.26
2023-03-27T00:18:46.035Z,7.25
2023-03-27T00:19:45.975Z,7.25
2023-03-27T00:20:45.951Z,7.25
2023-03-27T00:21:45.940Z,7.24
2023-03-27T00:22:45.967Z,7.24
2023-03-27T00:23:45.871Z,7.23
2023-03-27T00:24:45.898Z,7.23
2023-03-27T00:25:45.935Z,7.22
2023-03-27T00:26:45.937Z,7.22
2023-03-27T00:27:45.898Z,7.21
2023-03-27T00:28:45.836Z,7.21
2023-03-27T00:29:45.837Z,7.21
2023-03-27T00:30:45.835Z,7.21
2023-03-27T00:31:45.849Z,7.20
2023-03-27T00:32:45.884Z,7.20
2023-03-27T00:33:45.771Z,7.20
2023-03-27T00:34:45.776Z,7.20
2023-03-27T00:35:45.915Z,7.21
2023-03-27T00:36:45.790Z,7.21
2023-03-27T00:37:45.755Z,7.21
2023-03-27T00:38:45.789Z,7.21
2023-03-27T00:39:45.714Z,7.21
2023-03-27T00:40:45.724Z,7.22
2023-03-27T00:41:45.700Z,7.22
2023-03-27T00:42:45.700Z,7.22
2023-03-27T00:43:45.678Z,7.22
2023-03-27T00:44:45.700Z,7.22
2023-03-27T00:45:45.647Z,7.21
2023-03-27T00:46:45.653Z,7.21
2023-03-27T00:47:45.705Z,7.21
2023-03-27T00:48:45.613Z,7.20
2023-03-27T00:49:45.674Z,7.20
2023-03-27T00:50:45.624Z,7.20
2023-03-27T00:51:45.646Z,7.20
2023-03-27T00:52:45.584Z,7.20
2023-03-27T00:53:45.602Z,7.20
2023-03-27T00:54:45.706Z,7.20
2023-03-27T00:55:45.530Z,7.20
2023-03-27T00:56:45.609Z,7.20
2023-03-27T00:57:45.525Z,7.20
2023-03-27T00:58:45.561Z,7.20
2023-03-27T00:59:45.498Z,7.20
2023-03-27T01:00:45.492Z,7.20
2023-03-27T01:01:45.576Z,7.20
2023-03-27T01:02:45.562Z,7.19
2023-03-27T01:03:45.622Z,7.19
2023-03-27T01:04:45.465Z,7.18
2023-03-27T01:05:45.482Z,7.18
2023-03-27T01:06:45.556Z,7.17
2023-03-27T01:08:00.462Z,7.17
2023-03-27T01:08:46.440Z,7.17
2023-03-27T01:09:45.379Z,7.16
2023-03-27T01:10:45.421Z,7.16
2023-03-27T01:11:45.396Z,7.16
2023-03-27T01:12:45.376Z,7.15
2023-03-27T01:13:45.372Z,7.15
2023-03-27T01:14:45.349Z,7.15
2023-03-27T01:15:45.428Z,7.15
2023-03-27T01:16:45.409Z,7.14
2023-03-27T01:17:45.418Z,7.14
2023-03-27T01:18:45.452Z,7.14
2023-03-27T01:19:45.287Z,7.13
2023-03-27T01:20:45.373Z,7.13
2023-03-27T01:21:45.256Z,7.12
2023-03-27T01:22:45.269Z,7.11
2023-03-27T01:23:59.113Z,7.10
2023-03-27T01:24:46.273Z,7.09
2023-03-27T01:25:45.214Z,7.09
2023-03-27T01:26:45.261Z,7.08
2023-03-27T01:27:45.251Z,7.07
2023-03-27T01:28:45.282Z,7.07
2023-03-27T01:29:45.206Z,7.06
2023-03-27T01:30:45.185Z,7.05
2023-03-27T01:31:45.250Z,7.05
2023-03-27T01:32:45.250Z,7.05
2023-03-27T01:33:45.140Z,7.04
2023-03-27T01:34:45.181Z,7.04
2023-03-27T01:35:45.124Z,7.03
2023-03-27T01:36:45.154Z,7.03
2023-03-27T01:37:45.211Z,7.03
2023-03-27T01:38:45.241Z,7.02
2023-03-27T01:39:45.170Z,7.02
2023-03-27T01:40:45.078Z,7.02
2023-03-27T01:41:45.114Z,7.02
2023-03-27T01:42:45.080Z,7.02
2023-03-27T01:43:45.047Z,7.02
2023-03-27T01:44:45.642Z,7.02
2023-03-27T01:45:45.012Z,7.02
2023-03-27T01:46:45.035Z,7.02
2023-03-27T01:47:45.103Z,7.02
2023-03-27T01:48:45.034Z,7.01
2023-03-27T01:49:45.034Z,7.01
2023-03-27T01:50:44.922Z,7.01
2023-03-27T01:51:44.976Z,7.01
2023-03-27T01:52:44.911Z,7.00
2023-03-27T01:53:44.977Z,7.00
2023-03-27T01:54:45.014Z,6.99
2023-03-27T01:55:44.902Z,6.99
2023-03-27T01:56:44.926Z,6.99
2023-03-27T01:57:48.794Z,6.98
2023-03-27T01:58:45.871Z,6.98
2023-03-27T01:59:44.903Z,6.98
2023-03-27T02:00:50.978Z,6.98
2023-03-27T02:01:45.955Z,6.97
2023-03-27T02:02:44.894Z,6.96
2023-03-27T02:03:44.870Z,6.96
2023-03-27T02:04:44.975Z,6.95
2023-03-27T02:05:44.818Z,6.95
2023-03-27T02:06:44.827Z,6.94
2023-03-27T02:07:44.851Z,6.93
2023-03-27T02:08:44.812Z,6.92
2023-03-27T02:09:44.806Z,6.92
2023-03-27T02:10:44.787Z,6.91
2023-03-27T02:11:44.830Z,6.90
2023-03-27T02:12:44.718Z,6.89
2023-03-27T02:13:44.746Z,6.88
2023-03-27T02:14:44.910Z,6.87
2023-03-27T02:15:44.696Z,6.86
2023-03-27T02:16:44.737Z,6.85
2023-03-27T02:17:44.746Z,6.84
2023-03-27T02:18:44.666Z,6.84
2023-03-27T02:19:44.644Z,6.83
2023-03-27T02:20:44.643Z,6.83
2023-03-27T02:21:44.743Z,6.82
2023-03-27T02:22:44.702Z,6.81
2023-03-27T02:23:44.678Z,6.80
2023-03-27T02:24:44.662Z,6.79
2023-03-27T02:25:44.681Z,6.78
2023-03-27T02:26:44.606Z,6.78
2023-03-27T02:27:44.627Z,6.77
2023-03-27T02:28:44.537Z,6.77
2023-03-27T02:29:44.679Z,6.76
2023-03-27T02:30:44.563Z,6.76
2023-03-27T02:31:44.625Z,6.76
2023-03-27T02:32:44.584Z,6.75
2023-03-27T02:33:44.605Z,6.75
2023-03-27T02:34:44.504Z,6.74
2023-03-27T02:35:44.579Z,6.73
2023-03-27T02:36:44.585Z,6.73
2023-03-27T02:37:44.478Z,6.72
2023-03-27T02:38:44.492Z,6.72
2023-03-27T02:39:44.400Z,6.71
2023-03-27T02:40:44.459Z,6.70
2023-03-27T02:41:44.482Z,6.69
2023-03-27T02:42:44.430Z,6.68
2023-03-27T02:43:44.376Z,6.67
2023-03-27T02:44:46.851Z,6.66
2023-03-27T02:45:44.356Z,6.65
2023-03-27T02:46:44.524Z,6.65
2023-03-27T02:47:44.410Z,6.64
2023-03-27T02:48:44.356Z,6.64
2023-03-27T02:49:44.460Z,6.64
2023-03-27T02:50:44.343Z,6.63
2023-03-27T02:51:44.570Z,6.63
2023-03-27T02:52:44.448Z,6.62
2023-03-27T02:53:44.368Z,6.62
2023-03-27T02:54:44.282Z,6.62
2023-03-27T02:55:44.290Z,6.61
2023-03-27T02:56:44.326Z,6.61
2023-03-27T02:57:52.655Z,6.60
2023-03-27T02:58:45.356Z,6.59
2023-03-27T02:59:44.305Z,6.59
2023-03-27T03:00:44.314Z,6.58
2023-03-27T03:01:44.302Z,6.57
2023-03-27T03:02:44.297Z,6.57
2023-03-27T03:03:44.150Z,6.56
2023-03-27T03:04:44.278Z,6.56
2023-03-27T03:05:44.155Z,6.55
2023-03-27T03:06:44.175Z,6.54
2023-03-27T03:07:44.209Z,6.54
2023-03-27T03:08:44.138Z,6.53
2023-03-27T03:09:44.096Z,6.52
2023-03-27T03:10:44.129Z,6.51
2023-03-27T03:11:44.085Z,6.50
2023-03-27T03:12:44.089Z,6.49
2023-03-27T03:13:44.149Z,6.48
2023-03-27T03:14:44.131Z,6.47
2023-03-27T03:15:44.146Z,6.46
2023-03-27T03:16:44.071Z,6.45
2023-03-27T03:17:44.039Z,6.43
2023-03-27T03:18:44.140Z,6.42
2023-03-27T03:19:44.028Z,6.41
2023-03-27T03:20:43.988Z,6.40
2023-03-27T03:21:44.050Z,6.39
2023-03-27T03:22:43.986Z,6.39
2023-03-27T03:23:58.552Z,6.38
2023-03-27T03:24:45.008Z,6.38
2023-03-27T03:25:43.978Z,6.38
2023-03-27T03:26:43.926Z,6.37
2023-03-27T03:27:43.928Z,6.37
2023-03-27T03:29:00.985Z,6.36
2023-03-27T03:29:44.875Z,6.35
2023-03-27T03:30:43.904Z,6.35
2023-03-27T03:31:43.941Z,6.34
2023-03-27T03:32:44.019Z,6.34
2023-03-27T03:33:44.023Z,6.34
2023-03-27T03:34:43.972Z,6.34
2023-03-27T03:35:43.878Z,6.33
2023-03-27T03:36:43.947Z,6.33
2023-03-27T03:37:43.850Z,6.32
2023-03-27T03:38:43.843Z,6.32
2023-03-27T03:39:43.792Z,6.31
2023-03-27T03:40:43.807Z,6.30
2023-03-27T03:41:43.808Z,6.30
2023-03-27T03:42:43.785Z,6.28
2023-03-27T03:43:43.764Z,6.27
2023-03-27T03:44:43.721Z,6.26
2023-03-27T03:45:43.792Z,6.24
2023-03-27T03:46:43.747Z,6.23
2023-03-27T03:47:43.753Z,6.22
2023-03-27T03:48:43.716Z,6.20
2023-03-27T03:49:43.738Z,6.18
2023-03-27T03:50:43.711Z,6.16
2023-03-27T03:51:43.641Z,6.14
2023-03-27T03:52:43.702Z,6.13
2023-03-27T03:53:43.699Z,6.11
2023-03-27T03:54:44.982Z,6.10
2023-03-27T03:55:43.707Z,6.09
2023-03-27T03:56:43.623Z,6.08
2023-03-27T03:57:43.616Z,6.06
2023-03-27T03:58:43.674Z,6.05
2023-03-27T03:59:43.635Z,6.03
2023-03-27T04:00:43.655Z,6.02
2023-03-27T04:01:43.616Z,6.01
2023-03-27T04:02:43.718Z,6.00
2023-03-27T04:03:43.650Z,5.99
2023-03-27T04:04:46.108Z,5.98
2023-03-27T04:05:43.526Z,5.97
2023-03-27T04:06:43.564Z,5.96
2023-03-27T04:07:43.647Z,5.95
2023-03-27T04:08:43.449Z,5.94
2023-03-27T04:09:43.459Z,5.93
2023-03-27T04:10:43.471Z,5.92
2023-03-27T04:11:43.531Z,5.92
2023-03-27T04:12:43.469Z,5.92
2023-03-27T04:13:43.534Z,5.91
2023-03-27T04:14:43.478Z,5.90
2023-03-27T04:15:43.514Z,5.88
2023-03-27T04:16:43.451Z,5.86
2023-03-27T04:17:43.606Z,5.85
2023-03-27T04:18:43.540Z,5.83
2023-03-27T04:19:43.421Z,5.82
2023-03-27T04:20:43.605Z,5.81
2023-03-27T04:21:43.430Z,5.80
2023-03-27T04:22:43.374Z,5.79
2023-03-27T04:23:43.346Z,5.78
2023-03-27T04:24:43.332Z,5.78
2023-03-27T04:25:43.318Z,5.77
2023-03-27T04:26:43.376Z,5.77
2023-03-27T04:27:43.257Z,5.76
2023-03-27T04:28:43.229Z,5.75
2023-03-27T04:29:43.346Z,5.74
2023-03-27T04:30:43.253Z,5.73
2023-03-27T04:31:43.237Z,5.71
2023-03-27T04:32:43.265Z,5.70
2023-03-27T04:33:43.194Z,5.68
2023-03-27T04:34:43.204Z,5.67
2023-03-27T04:35:43.288Z,5.66
2023-03-27T04:36:43.166Z,5.65
2023-03-27T04:37:43.195Z,5.64
2023-03-27T04:38:43.155Z,5.63
2023-03-27T04:39:43.188Z,5.62
2023-03-27T04:40:43.163Z,5.62
2023-03-27T04:41:43.158Z,5.61
2023-03-27T04:42:43.212Z,5.60
2023-03-27T04:43:43.095Z,5.59
2023-03-27T04:44:43.105Z,5.58
2023-03-27T04:45:43.092Z,5.57
2023-03-27T04:46:43.129Z,5.56
2023-03-27T04:47:43.096Z,5.55
2023-03-27T04:48:43.052Z,5.54
2023-03-27T04:49:43.047Z,5.54
2023-03-27T04:50:43.011Z,5.53
2023-03-27T04:51:43.026Z,5.53
2023-03-27T04:52:43.001Z,5.53
2023-03-27T04:53:43.079Z,5.53
2023-03-27T04:54:43.008Z,5.52
2023-03-27T04:55:43.085Z,5.51
2023-03-27T04:56:42.989Z,5.50
2023-03-27T04:57:42.915Z,5.48
2023-03-27T04:58:42.982Z,5.47
2023-03-27T04:59:42.947Z,5.46
2023-03-27T05:00:43.061Z,5.44
2023-03-27T05:01:43.018Z,5.43
2023-03-27T05:02:42.988Z,5.42
2023-03-27T05:03:42.890Z,5.40
2023-03-27T05:04:42.988Z,5.39
2023-03-27T05:05:42.878Z,5.38
2023-03-27T05:06:42.860Z,5.37
2023-03-27T05:07:42.852Z,5.36
2023-03-27T05:08:42.836Z,5.35
2023-03-27T05:09:42.805Z,5.34
2023-03-27T05:10:42.850Z,5.32
2023-03-27T05:11:42.912Z,5.31
2023-03-27T05:12:42.798Z,5.28
2023-03-27T05:13:42.767Z,5.26
2023-03-27T05:14:42.773Z,5.23
2023-03-27T05:15:42.821Z,5.19
2023-03-27T05:16:42.788Z,5.17
2023-03-27T05:17:42.768Z,5.14
2023-03-27T05:18:42.735Z,5.12
2023-03-27T05:19:42.712Z,5.10
2023-03-27T05:20:42.707Z,5.09
2023-03-27T05:21:42.765Z,5.08
2023-03-27T05:22:42.916Z,5.07
2023-03-27T05:23:43.026Z,5.06
2023-03-27T05:24:42.982Z,5.06
2023-03-27T05:25:42.800Z,5.05
2023-03-27T05:26:42.679Z,5.04
2023-03-27T05:27:42.654Z,5.04
2023-03-27T05:28:42.586Z,5.03
2023-03-27T05:29:47.391Z,5.02
2023-03-27T05:30:43.629Z,5.01
2023-03-27T05:31:42.624Z,5.01
2023-03-27T05:32:42.734Z,5.00
2023-03-27T05:33:42.561Z,4.99
2023-03-27T05:34:42.644Z,4.98
2023-03-27T05:35:42.588Z,4.98
2023-03-27T05:36:42.588Z,4.98
2023-03-27T05:37:42.535Z,4.99
2023-03-27T05:38:42.503Z,4.99
2023-03-27T05:39:42.495Z,4.99
2023-03-27T05:40:42.450Z,4.99
2023-03-27T05:41:42.412Z,4.99
2023-03-27T05:42:42.467Z,4.99
2023-03-27T05:43:42.396Z,4.99
2023-03-27T05:44:42.402Z,4.98
2023-03-27T05:45:42.457Z,4.97
2023-03-27T05:46:42.440Z,4.96
2023-03-27T05:47:42.397Z,4.95
2023-03-27T05:48:42.386Z,4.94
2023-03-27T05:49:42.337Z,4.93
2023-03-27T05:50:42.391Z,4.91
2023-03-27T05:51:47.268Z,4.90
2023-03-27T05:52:43.304Z,4.88
2023-03-27T05:53:42.293Z,4.86
2023-03-27T05:54:42.346Z,4.85
2023-03-27T05:55:42.292Z,4.84
2023-03-27T05:56:42.353Z,4.82
2023-03-27T05:57:42.251Z,4.81
2023-03-27T05:58:42.247Z,4.80
2023-03-27T05:59:42.244Z,4.78
2023-03-27T06:00:42.227Z,4.77
2023-03-27T06:01:42.240Z,4.75
2023-03-27T06:02:42.282Z,4.73
2023-03-27T06:03:42.328Z,4.72
2023-03-27T06:04:42.228Z,4.70
2023-03-27T06:05:42.184Z,4.69
2023-03-27T06:06:42.186Z,4.69
2023-03-27T06:07:43.526Z,4.68
2023-03-27T06:08:42.140Z,4.68
2023-03-27T06:09:42.202Z,4.68
2023-03-27T06:10:42.108Z,4.67
2023-03-27T06:11:42.124Z,4.67
2023-03-27T06:12:42.091Z,4.67
2023-03-27T06:13:42.109Z,4.67
2023-03-27T06:14:42.065Z,4.69
2023-03-27T06:15:42.070Z,4.71
2023-03-27T06:16:42.105Z,4.73
2023-03-27T06:17:42.100Z,4.77
2023-03-27T06:18:42.036Z,4.80
2023-03-27T06:19:42.047Z,4.84
2023-03-27T06:20:42.005Z,4.88
2023-03-27T06:21:42.012Z,4.92
2023-03-27T06:22:42.017Z,4.96
2023-03-27T06:23:41.971Z,5.00
2023-03-27T06:24:41.960Z,5.05
2023-03-27T06:25:41.955Z,5.09
2023-03-27T06:26:42.026Z,5.13
2023-03-27T06:27:41.954Z,5.18
2023-03-27T06:28:41.914Z,5.22
2023-03-27T06:29:41.931Z,5.26
2023-03-27T06:30:41.899Z,5.30
2023-03-27T06:31:41.909Z,5.35
2023-03-27T06:32:41.942Z,5.39
2023-03-27T06:33:41.865Z,5.43
2023-03-27T06:34:41.853Z,5.47
2023-03-27T06:35:41.861Z,5.51
2023-03-27T06:36:41.855Z,5.55
2023-03-27T06:37:41.820Z,5.58
2023-03-27T06:38:41.828Z,5.62
2023-03-27T06:39:41.874Z,5.66
2023-03-27T06:40:41.788Z,5.70
2023-03-27T06:41:41.782Z,5.73
2023-03-27T06:42:43.282Z,5.75
2023-03-27T06:43:41.774Z,5.78
2023-03-27T06:44:41.751Z,5.80
2023-03-27T06:45:41.750Z,5.83
2023-03-27T06:46:45.442Z,5.84
2023-03-27T06:47:53.500Z,5.86
2023-03-27T06:48:42.785Z,5.87
2023-03-27T06:49:41.705Z,5.88
2023-03-27T06:50:41.694Z,5.88
2023-03-27T06:51:41.676Z,5.89
2023-03-27T06:52:41.672Z,5.89
2023-03-27T06:53:41.678Z,5.89
2023-03-27T06:54:41.707Z,5.89
2023-03-27T06:55:41.648Z,5.89
2023-03-27T06:56:41.663Z,5.89
2023-03-27T06:57:41.668Z,5.89
2023-03-27T06:58:41.616Z,5.90
2023-03-27T06:59:41.603Z,5.91
2023-03-27T07:00:41.636Z,5.92
2023-03-27T07:01:41.598Z,5.94
2023-03-27T07:02:41.654Z,5.95
2023-03-27T07:03:41.612Z,5.97
2023-03-27T07:04:46.093Z,6.01
2023-03-27T07:05:42.639Z,6.04
2023-03-27T07:06:41.639Z,6.07
2023-03-27T07:07:41.821Z,6.09
2023-03-27T07:08:41.573Z,6.12
2023-03-27T07:09:41.514Z,6.15
2023-03-27T07:10:41.494Z,6.17
2023-03-27T07:11:41.555Z,6.19
2023-03-27T07:12:41.500Z,6.20
2023-03-27T07:13:41.523Z,6.22
2023-03-27T07:14:41.485Z,6.23
2023-03-27T07:15:41.447Z,6.24
2023-03-27T07:16:41.506Z,6.25
2023-03-27T07:17:48.623Z,6.27
2023-03-27T07:18:42.393Z,6.29
2023-03-27T07:19:41.397Z,6.32
2023-03-27T07:20:41.357Z,6.34
2023-03-27T07:21:41.423Z,6.37
2023-03-27T07:22:41.390Z,6.40
2023-03-27T07:23:41.544Z,6.44
2023-03-27T07:24:41.432Z,6.48
2023-03-27T07:25:41.342Z,6.52
2023-03-27T07:26:41.356Z,6.56
2023-03-27T07:27:41.344Z,6.60
2023-03-27T07:28:41.293Z,6.64
2023-03-27T07:29:41.361Z,6.68
2023-03-27T07:30:41.268Z,6.73
2023-03-27T07:31:55.367Z,6.77
2023-03-27T07:32:42.436Z,6.81
2023-03-27T07:33:41.296Z,6.86
2023-03-27T07:34:41.231Z,6.90
2023-03-27T07:35:41.245Z,6.94
2023-03-27T07:36:41.223Z,6.98
2023-03-27T07:37:41.235Z,7.02
2023-03-27T07:38:41.225Z,7.06
2023-03-27T07:39:41.253Z,7.10
2023-03-27T07:40:41.172Z,7.14
2023-03-27T07:41:41.235Z,7.19
2023-03-27T07:42:41.279Z,7.23
2023-03-27T07:43:41.136Z,7.27
2023-03-27T07:44:41.134Z,7.31
2023-03-27T07:45:41.149Z,7.33
2023-03-27T07:46:41.124Z,7.36
2023-03-27T07:47:41.128Z,7.37
2023-03-27T07:48:41.087Z,7.38
2023-03-27T07:49:41.190Z,7.38
2023-03-27T07:50:41.110Z,7.38
2023-03-27T07:51:41.072Z,7.37
2023-03-27T07:52:41.067Z,7.36
2023-03-27T07:53:41.050Z,7.35
2023-03-27T07:54:41.042Z,7.33
2023-03-27T07:55:41.016Z,7.32
2023-03-27T07:56:41.132Z,7.30
2023-03-27T07:57:57.140Z,7.28
2023-03-27T07:58:42.080Z,7.26
2023-03-27T07:59:41.018Z,7.24
2023-03-27T08:00:40.979Z,7.22
2023-03-27T08:01:40.999Z,7.20
2023-03-27T08:02:40.985Z,7.18
2023-03-27T08:03:41.203Z,7.16
2023-03-27T08:04:41.017Z,7.15
2023-03-27T08:05:40.921Z,7.14
2023-03-27T08:06:40.935Z,7.14
2023-03-27T08:07:40.932Z,7.15
2023-03-27T08:08:40.882Z,7.16
2023-03-27T08:09:40.913Z,7.18
2023-03-27T08:10:40.873Z,7.21
2023-03-27T08:11:40.863Z,7.23
2023-03-27T08:12:40.848Z,7.26
2023-03-27T08:13:40.817Z,7.29
2023-03-27T08:14:40.880Z,7.32
2023-03-27T08:15:40.824Z,7.35
2023-03-27T08:16:40.934Z,7.38
2023-03-27T08:17:40.935Z,7.41
2023-03-27T08:18:40.770Z,7.44
2023-03-27T08:19:40.748Z,7.46
2023-03-27T08:20:40.756Z,7.48
2023-03-27T08:21:40.770Z,7.51
2023-03-27T08:22:40.730Z,7.53
2023-03-27T08:23:40.733Z,7.55
2023-03-27T08:24:40.692Z,7.57
2023-03-27T08:25:40.670Z,7.59
2023-03-27T08:26:40.687Z,7.62
2023-03-27T08:27:40.659Z,7.64
2023-03-27T08:28:40.665Z,7.67
2023-03-27T08:29:40.667Z,7.70
2023-03-27T08:30:40.671Z,7.74
2023-03-27T08:31:40.604Z,7.77
2023-03-27T08:32:40.780Z,7.81
2023-03-27T08:33:40.635Z,7.84
2023-03-27T08:34:40.586Z,7.87
2023-03-27T08:35:40.621Z,7.90
2023-03-27T08:36:40.629Z,7.93
2023-03-27T08:37:40.554Z,7.96
2023-03-27T08:38:40.554Z,7.98
2023-03-27T08:39:40.590Z,8.00
2023-03-27T08:40:40.526Z,8.03
2023-03-27T08:41:40.556Z,8.05
2023-03-27T08:42:40.506Z,8.07
2023-03-27T08:43:40.552Z,8.09
2023-03-27T08:44:40.577Z,8.11
2023-03-27T08:45:40.510Z,8.13
2023-03-27T08:46:40.500Z,8.16
2023-03-27T08:47:40.485Z,8.17
2023-03-27T08:48:40.439Z,8.18
2023-03-27T08:49:40.530Z,8.19
2023-03-27T08:50:40.445Z,8.20
2023-03-27T08:51:40.478Z,8.20
2023-03-27T08:52:40.415Z,8.21
2023-03-27T08:53:40.431Z,8.22
2023-03-27T08:54:40.444Z,8.24
2023-03-27T08:55:40.476Z,8.25
2023-03-27T08:56:40.393Z,8.27
2023-03-27T08:57:40.363Z,8.29
2023-03-27T08:58:40.337Z,8.31
2023-03-27T08:59:40.380Z,8.33
2023-03-27T09:00:40.321Z,8.35
2023-03-27T09:01:40.357Z,8.37
2023-03-27T09:02:40.403Z,8.39
2023-03-27T09:03:40.329Z,8.41
2023-03-27T09:04:40.305Z,8.43
2023-03-27T09:05:40.407Z,8.45
2023-03-27T09:06:40.246Z,8.46
2023-03-27T09:07:40.245Z,8.48
2023-03-27T09:08:40.255Z,8.48
2023-03-27T09:09:40.207Z,8.48
2023-03-27T09:10:40.247Z,8.48
2023-03-27T09:11:40.250Z,8.47
2023-03-27T09:12:40.226Z,8.46
2023-03-27T09:13:40.206Z,8.44
2023-03-27T09:14:40.272Z,8.42
2023-03-27T09:15:40.173Z,8.40
2023-03-27T09:16:40.241Z,8.37
2023-03-27T09:17:40.242Z,8.34
2023-03-27T09:18:40.146Z,8.31
2023-03-27T09:19:40.131Z,8.28
2023-03-27T09:20:40.113Z,8.26
2023-03-27T09:21:40.130Z,8.23
2023-03-27T09:22:40.121Z,8.20
2023-03-27T09:23:40.064Z,8.17
2023-03-27T09:24:40.117Z,8.15
2023-03-27T09:25:40.084Z,8.12
2023-03-27T09:26:40.084Z,8.09
2023-03-27T09:27:40.076Z,8.07
2023-03-27T09:28:40.056Z,8.04
2023-03-27T09:29:40.063Z,8.02
2023-03-27T09:30:40.012Z,8.00
2023-03-27T09:31:40.110Z,7.98
2023-03-27T09:32:40.084Z,7.97
2023-03-27T09:33:39.963Z,7.97
2023-03-27T09:34:40.036Z,7.98
2023-03-27T09:35:40.054Z,7.99
2023-03-27T09:36:39.928Z,8.00
2023-03-27T09:37:39.960Z,8.00
2023-03-27T09:38:39.972Z,8.01
2023-03-27T09:39:40.160Z,8.01
2023-03-27T09:40:39.908Z,8.01
2023-03-27T09:41:39.913Z,8.00
2023-03-27T09:42:39.977Z,7.99
2023-03-27T09:43:39.822Z,7.97
2023-03-27T09:44:39.807Z,7.95
2023-03-27T09:45:39.812Z,7.94
2023-03-27T09:46:39.818Z,7.93
2023-03-27T09:47:39.811Z,7.93
2023-03-27T09:48:39.787Z,7.93
2023-03-27T09:49:39.754Z,7.94
2023-03-27T09:50:39.741Z,7.96
2023-03-27T09:51:39.762Z,7.97
2023-03-27T09:52:39.778Z,8.00
2023-03-27T09:53:39.739Z,8.02
2023-03-27T09:54:39.762Z,8.05
2023-03-27T09:55:39.688Z,8.08
2023-03-27T09:56:39.748Z,8.10
2023-03-27T09:57:39.684Z,8.13
2023-03-27T09:58:39.701Z,8.15
2023-03-27T09:59:39.662Z,8.17
2023-03-27T10:00:39.735Z,8.18
2023-03-27T10:01:39.620Z,8.19
2023-03-27T10:02:39.654Z,8.20
2023-03-27T10:03:39.713Z,8.21
2023-03-27T10:04:39.608Z,8.22
2023-03-27T10:05:39.609Z,8.23
2023-03-27T10:06:39.649Z,8.25
2023-03-27T10:07:39.572Z,8.26
2023-03-27T10:08:39.557Z,8.27
2023-03-27T10:09:39.614Z,8.29
2023-03-27T10:10:39.550Z,8.30
2023-03-27T10:11:39.558Z,8.31
2023-03-27T10:12:39.557Z,8.32
2023-03-27T10:13:39.491Z,8.33
2023-03-27T10:14:39.500Z,8.34
2023-03-27T10:15:39.515Z,8.34
2023-03-27T10:16:39.559Z,8.34
2023-03-27T10:17:39.519Z,8.35
2023-03-27T10:18:39.457Z,8.35
2023-03-27T10:19:39.446Z,8.34
2023-03-27T10:20:39.456Z,8.34
2023-03-27T10:21:39.483Z,8.34
2023-03-27T10:22:39.409Z,8.33
2023-03-27T10:23:39.437Z,8.33
2023-03-27T10:24:44.535Z,8.32
2023-03-27T10:25:40.393Z,8.31
2023-03-27T10:26:39.374Z,8.30
2023-03-27T10:28:08.321Z,8.29
2023-03-27T10:28:41.065Z,8.28
2023-03-27T10:29:41.214Z,8.27
2023-03-27T10:30:39.367Z,8.25
2023-03-27T10:31:39.361Z,8.24
2023-03-27T10:32:39.376Z,8.22
2023-03-27T10:33:39.357Z,8.21
2023-03-27T10:34:39.316Z,8.21
2023-03-27T10:35:39.521Z,8.20
2023-03-27T10:36:39.337Z,8.21
2023-03-27T10:37:39.434Z,8.21
2023-03-27T10:38:39.320Z,8.23
2023-03-27T10:39:39.334Z,8.24
2023-03-27T10:40:39.331Z,8.26
2023-03-27T10:41:40.679Z,8.28
2023-03-27T10:42:39.759Z,8.29
2023-03-27T10:43:39.182Z,8.31
2023-03-27T10:44:39.359Z,8.32
2023-03-27T10:45:39.215Z,8.33
2023-03-27T10:46:39.179Z,8.34
2023-03-27T10:47:39.329Z,8.34
2023-03-27T10:48:39.158Z,8.33
2023-03-27T10:49:39.158Z,8.31
2023-03-27T10:50:39.173Z,8.28
2023-03-27T10:51:46.052Z,8.25
2023-03-27T10:52:40.100Z,8.21
2023-03-27T10:53:39.161Z,8.17
2023-03-27T10:54:39.119Z,8.13
2023-03-27T10:55:39.048Z,8.10
2023-03-27T10:56:39.144Z,8.07
2023-03-27T10:57:39.044Z,8.05
2023-03-27T10:58:39.024Z,8.04
2023-03-27T10:59:41.928Z,8.03
2023-03-27T11:00:38.999Z,8.03
2023-03-27T11:01:39.144Z,8.03
2023-03-27T11:02:39.053Z,8.04
2023-03-27T11:03:39.108Z,8.06
2023-03-27T11:04:39.039Z,8.08
2023-03-27T11:05:39.054Z,8.10
2023-03-27T11:06:40.852Z,8.13
2023-03-27T11:07:38.943Z,8.16
2023-03-27T11:08:38.929Z,8.19
2023-03-27T11:09:39.889Z,8.22
2023-03-27T11:10:38.952Z,8.26
2023-03-27T11:11:39.065Z,8.29
2023-03-27T11:12:39.669Z,8.33
2023-03-27T11:13:39.564Z,8.36
2023-03-27T11:14:38.919Z,8.40
2023-03-27T11:15:38.905Z,8.43
2023-03-27T11:16:38.930Z,8.46
2023-03-27T11:17:38.934Z,8.48
2023-03-27T11:18:38.814Z,8.50
2023-03-27T11:19:38.991Z,8.52
2023-03-27T11:20:38.954Z,8.53
2023-03-27T11:21:38.843Z,8.53
2023-03-27T11:22:38.821Z,8.53
2023-03-27T11:23:38.825Z,8.53
2023-03-27T11:24:39.758Z,8.53
2023-03-27T11:25:38.874Z,8.52
2023-03-27T11:26:38.856Z,8.50
2023-03-27T11:27:38.945Z,8.48
2023-03-27T11:28:38.769Z,8.46
2023-03-27T11:29:38.832Z,8.44
2023-03-27T11:30:38.863Z,8.42
2023-03-27T11:31:38.855Z,8.40
2023-03-27T11:32:38.753Z,8.39
2023-03-27T11:33:38.976Z,8.37
2023-03-27T11:34:40.458Z,8.36
2023-03-27T11:35:39.755Z,8.35
2023-03-27T11:36:38.734Z,8.33
2023-03-27T11:37:38.708Z,8.30
2023-03-27T11:38:38.934Z,8.27
2023-03-27T11:39:38.647Z,8.24
2023-03-27T11:40:38.732Z,8.21
2023-03-27T11:41:38.637Z,8.18
2023-03-27T11:42:38.620Z,8.16
2023-03-27T11:43:38.651Z,8.15
2023-03-27T11:44:47.708Z,8.13
2023-03-27T11:45:40.514Z,8.12
2023-03-27T11:47:19.175Z,8.12
2023-03-27T11:49:13.823Z,9.20
2023-03-27T11:50:00.145Z,8.78
2023-03-27T11:51:33.478Z,8.51
2023-03-27T11:51:59.216Z,8.36
2023-03-27T11:53:07.942Z,8.29
2023-03-27T11:54:00.403Z,8.25
2023-03-27T11:54:59.663Z,8.23
2023-03-27T11:55:59.290Z,8.23
2023-03-27T11:56:59.211Z,8.24
2023-03-27T11:57:59.915Z,8.25
2023-03-27T11:58:59.339Z,8.27
2023-03-27T11:59:58.994Z,8.28
2023-03-27T12:00:59.139Z,8.30
2023-03-27T12:02:00.211Z,8.32
2023-03-27T12:03:02.678Z,8.34
2023-03-27T12:04:00.350Z,8.36
2023-03-27T12:04:59.023Z,8.37
2023-03-27T12:06:06.796Z,8.39
2023-03-27T12:07:04.226Z,8.41
2023-03-27T12:07:59.963Z,8.43
2023-03-27T12:08:59.119Z,8.45
2023-03-27T12:09:58.961Z,8.47
2023-03-27T12:10:59.106Z,8.48
2023-03-27T12:11:58.926Z,8.50
2023-03-27T12:12:58.901Z,8.52
2023-03-27T12:14:02.432Z,8.53
2023-03-27T12:14:59.244Z,8.55
2023-03-27T12:16:01.138Z,8.56
2023-03-27T12:16:59.063Z,8.57
2023-03-27T12:18:00.305Z,8.58
2023-03-27T12:19:06.007Z,8.59
2023-03-27T12:20:02.300Z,8.60
2023-03-27T12:21:03.204Z,8.61
2023-03-27T12:22:22.797Z,8.61
2023-03-27T12:23:00.132Z,8.62
2023-03-27T12:24:02.321Z,8.62
2023-03-27T12:25:00.186Z,8.62
2023-03-27T12:26:21.699Z,8.62
2023-03-27T12:26:59.115Z,8.62
2023-03-27T12:27:58.857Z,8.62
2023-03-27T12:28:59.111Z,8.62
2023-03-27T12:29:59.205Z,8.61
2023-03-27T12:32:58.279Z,9.68
2023-03-27T12:33:28.922Z,9.25
2023-03-27T12:34:27.971Z,8.97
2023-03-27T12:35:28.944Z,8.81
2023-03-27T12:36:28.157Z,8.72
2023-03-27T12:37:27.858Z,8.67
2023-03-27T12:38:27.830Z,8.65
2023-03-27T12:39:27.828Z,8.64
2023-03-27T12:40:28.544Z,8.64
2023-03-27T12:41:44.169Z,8.64
2023-03-27T12:42:30.726Z,8.64
2023-03-27T12:43:28.884Z,8.65
2023-03-27T12:44:28.279Z,8.66
2023-03-27T12:45:29.729Z,8.67
2023-03-27T12:46:27.955Z,8.68
2023-03-27T12:47:27.853Z,8.69
2023-03-27T12:48:28.661Z,8.70
2023-03-27T12:49:40.663Z,8.71
2023-03-27T12:50:28.776Z,8.72
2023-03-27T12:51:27.785Z,8.73
2023-03-27T12:52:29.589Z,8.74
2023-03-27T12:53:27.781Z,8.76
2023-03-27T12:54:27.793Z,8.77
2023-03-27T12:55:27.794Z,8.78
2023-03-27T12:56:27.874Z,8.79
2023-03-27T12:57:27.908Z,8.80
2023-03-27T12:58:27.684Z,8.80
2023-03-27T12:59:27.739Z,8.81
2023-03-27T13:00:27.618Z,8.81
2023-03-27T13:01:27.633Z,8.82
2023-03-27T13:02:28.519Z,8.82
2023-03-27T13:03:27.749Z,8.82
2023-03-27T13:04:27.668Z,8.82
2023-03-27T13:05:28.141Z,8.83
2023-03-27T13:06:27.511Z,8.83
2023-03-27T13:07:28.551Z,8.83
2023-03-27T13:08:27.580Z,8.84
2023-03-27T13:09:27.508Z,8.84
2023-03-27T13:10:27.459Z,8.84
2023-03-27T13:11:27.501Z,8.85
2023-03-27T13:12:27.453Z,8.85
2023-03-27T13:13:27.470Z,8.86
2023-03-27T13:14:30.587Z,8.86
2023-03-27T13:15:27.483Z,8.87
2023-03-27T13:16:27.463Z,8.87
2023-03-27T13:17:29.432Z,8.88
2023-03-27T13:18:27.565Z,8.88
2023-03-27T13:19:27.373Z,8.89
2023-03-27T13:20:27.530Z,8.89
2023-03-27T13:21:27.375Z,8.90